sensor_id;sensor_type;location;lat;lon;timestamp;temperature;humidity
3628;DHT22;1830;49.000;12.074;2023-06-14T00:00:00;16.90;85.30
3628;DHT22;1830;49.000;12.074;2023-06-14T00:02:29;16.90;85.60
3628;DHT22;1830;49.000;12.074;2023-06-14T00:04:56;16.80;85.60
3628;DHT22;1830;49.000;12.074;2023-06-14T00:07:34;16.80;86.00
3628;DHT22;1830;49.000;12.074;2023-06-14T00:10:02;16.70;86.40
3628;DHT22;1830;49.000;12.074;2023-06-14T00:12:30;16.60;86.90
3628;DHT22;1830;49.000;12.074;2023-06-14T00:14:56;16.50;87.20
3628;DHT22;1830;49.000;12.074;2023-06-14T00:17:23;16.40;87.40
3628;DHT22;1830;49.000;12.074;2023-06-14T00:19:55;16.30;88.20
3628;DHT22;1830;49.000;12.074;2023-06-14T00:22:23;16.40;88.50
3628;DHT22;1830;49.000;12.074;2023-06-14T00:24:50;16.30;89.60
3628;DHT22;1830;49.000;12.074;2023-06-14T00:27:18;16.30;89.30
3628;DHT22;1830;49.000;12.074;2023-06-14T00:29:45;16.30;89.80
3628;DHT22;1830;49.000;12.074;2023-06-14T00:32:12;16.10;89.80
3628;DHT22;1830;49.000;12.074;2023-06-14T00:34:39;15.90;90.10
3628;DHT22;1830;49.000;12.074;2023-06-14T00:37:05;15.90;90.50
3628;DHT22;1830;49.000;12.074;2023-06-14T00:39:32;15.90;90.80
3628;DHT22;1830;49.000;12.074;2023-06-14T00:41:59;15.80;91.00
3628;DHT22;1830;49.000;12.074;2023-06-14T00:44:27;15.90;91.20
3628;DHT22;1830;49.000;12.074;2023-06-14T00:46:54;15.70;91.20
3628;DHT22;1830;49.000;12.074;2023-06-14T00:49:21;15.80;91.40
3628;DHT22;1830;49.000;12.074;2023-06-14T00:51:48;15.70;91.50
3628;DHT22;1830;49.000;12.074;2023-06-14T00:54:14;15.80;91.60
3628;DHT22;1830;49.000;12.074;2023-06-14T00:56:44;15.70;91.70
3628;DHT22;1830;49.000;12.074;2023-06-14T00:59:11;15.60;91.90
3628;DHT22;1830;49.000;12.074;2023-06-14T01:01:39;15.70;92.10
3628;DHT22;1830;49.000;12.074;2023-06-14T01:04:06;15.60;92.20
3628;DHT22;1830;49.000;12.074;2023-06-14T01:06:37;15.60;92.20
3628;DHT22;1830;49.000;12.074;2023-06-14T01:09:11;15.60;92.50
3628;DHT22;1830;49.000;12.074;2023-06-14T01:11:47;15.60;92.60
3628;DHT22;1830;49.000;12.074;2023-06-14T01:14:17;15.50;92.70
3628;DHT22;1830;49.000;12.074;2023-06-14T01:16:46;15.40;92.90
3628;DHT22;1830;49.000;12.074;2023-06-14T01:19:16;15.50;93.00
3628;DHT22;1830;49.000;12.074;2023-06-14T01:21:43;15.50;93.20
3628;DHT22;1830;49.000;12.074;2023-06-14T01:24:11;15.40;93.30
3628;DHT22;1830;49.000;12.074;2023-06-14T01:26:38;15.40;93.40
3628;DHT22;1830;49.000;12.074;2023-06-14T01:29:11;15.30;93.50
3628;DHT22;1830;49.000;12.074;2023-06-14T01:31:42;15.30;93.60
3628;DHT22;1830;49.000;12.074;2023-06-14T01:34:08;15.30;93.80
3628;DHT22;1830;49.000;12.074;2023-06-14T01:36:36;15.20;93.90
3628;DHT22;1830;49.000;12.074;2023-06-14T01:39:07;15.20;94.00
3628;DHT22;1830;49.000;12.074;2023-06-14T01:41:36;15.10;94.10
3628;DHT22;1830;49.000;12.074;2023-06-14T01:44:03;15.00;94.20
3628;DHT22;1830;49.000;12.074;2023-06-14T01:46:31;15.00;94.30
3628;DHT22;1830;49.000;12.074;2023-06-14T01:48:58;15.00;94.50
3628;DHT22;1830;49.000;12.074;2023-06-14T01:51:25;14.90;94.30
3628;DHT22;1830;49.000;12.074;2023-06-14T01:53:52;15.00;94.70
3628;DHT22;1830;49.000;12.074;2023-06-14T01:56:19;14.80;94.50
3628;DHT22;1830;49.000;12.074;2023-06-14T01:58:48;14.80;94.80
3628;DHT22;1830;49.000;12.074;2023-06-14T02:01:15;14.90;94.20
3628;DHT22;1830;49.000;12.074;2023-06-14T02:03:42;14.80;94.50
3628;DHT22;1830;49.000;12.074;2023-06-14T02:06:10;14.80;94.60
3628;DHT22;1830;49.000;12.074;2023-06-14T02:08:37;14.80;94.50
3628;DHT22;1830;49.000;12.074;2023-06-14T02:11:04;14.80;94.40
3628;DHT22;1830;49.000;12.074;2023-06-14T02:13:31;14.80;94.40
3628;DHT22;1830;49.000;12.074;2023-06-14T02:15:59;14.70;94.50
3628;DHT22;1830;49.000;12.074;2023-06-14T02:18:26;14.60;94.60
3628;DHT22;1830;49.000;12.074;2023-06-14T02:20:53;14.70;94.70
3628;DHT22;1830;49.000;12.074;2023-06-14T02:23:19;14.60;94.50
3628;DHT22;1830;49.000;12.074;2023-06-14T02:25:46;14.60;94.60
3628;DHT22;1830;49.000;12.074;2023-06-14T02:28:13;14.60;94.60
3628;DHT22;1830;49.000;12.074;2023-06-14T02:30:40;14.60;94.70
3628;DHT22;1830;49.000;12.074;2023-06-14T02:33:08;14.50;94.80
3628;DHT22;1830;49.000;12.074;2023-06-14T02:35:37;14.50;95.00
3628;DHT22;1830;49.000;12.074;2023-06-14T02:38:04;14.50;95.10
3628;DHT22;1830;49.000;12.074;2023-06-14T02:40:31;14.40;95.20
3628;DHT22;1830;49.000;12.074;2023-06-14T02:42:58;14.40;95.50
3628;DHT22;1830;49.000;12.074;2023-06-14T02:45:25;14.40;95.50
3628;DHT22;1830;49.000;12.074;2023-06-14T02:47:52;14.40;95.80
3628;DHT22;1830;49.000;12.074;2023-06-14T02:50:20;14.40;95.90
3628;DHT22;1830;49.000;12.074;2023-06-14T02:52:49;14.20;96.10
3628;DHT22;1830;49.000;12.074;2023-06-14T02:55:16;14.20;96.40
3628;DHT22;1830;49.000;12.074;2023-06-14T02:57:42;14.20;96.50
3628;DHT22;1830;49.000;12.074;2023-06-14T03:00:10;14.20;96.60
3628;DHT22;1830;49.000;12.074;2023-06-14T03:02:38;14.20;96.80
3628;DHT22;1830;49.000;12.074;2023-06-14T03:05:06;14.10;96.90
3628;DHT22;1830;49.000;12.074;2023-06-14T03:07:35;14.00;97.00
3628;DHT22;1830;49.000;12.074;2023-06-14T03:10:07;14.00;97.00
3628;DHT22;1830;49.000;12.074;2023-06-14T03:12:35;14.00;97.10
3628;DHT22;1830;49.000;12.074;2023-06-14T03:15:03;14.00;97.10
3628;DHT22;1830;49.000;12.074;2023-06-14T03:17:31;14.00;97.10
3628;DHT22;1830;49.000;12.074;2023-06-14T03:19:59;14.00;97.10
3628;DHT22;1830;49.000;12.074;2023-06-14T03:22:26;14.00;97.40
3628;DHT22;1830;49.000;12.074;2023-06-14T03:24:55;14.00;97.50
3628;DHT22;1830;49.000;12.074;2023-06-14T03:27:22;13.90;97.50
3628;DHT22;1830;49.000;12.074;2023-06-14T03:29:48;14.00;97.60
3628;DHT22;1830;49.000;12.074;2023-06-14T03:32:15;13.90;97.70
3628;DHT22;1830;49.000;12.074;2023-06-14T03:34:42;13.90;97.80
3628;DHT22;1830;49.000;12.074;2023-06-14T03:37:10;13.90;97.70
3628;DHT22;1830;49.000;12.074;2023-06-14T03:39:37;13.90;97.80
3628;DHT22;1830;49.000;12.074;2023-06-14T03:42:12;13.90;97.90
3628;DHT22;1830;49.000;12.074;2023-06-14T03:44:39;13.90;98.00
3628;DHT22;1830;49.000;12.074;2023-06-14T03:47:06;13.90;97.90
3628;DHT22;1830;49.000;12.074;2023-06-14T03:49:33;13.90;98.00
3628;DHT22;1830;49.000;12.074;2023-06-14T03:52:00;14.00;98.00
3628;DHT22;1830;49.000;12.074;2023-06-14T03:54:27;14.00;97.80
3628;DHT22;1830;49.000;12.074;2023-06-14T03:56:54;14.00;97.60
3628;DHT22;1830;49.000;12.074;2023-06-14T03:59:23;14.00;97.70
3628;DHT22;1830;49.000;12.074;2023-06-14T04:01:51;13.90;97.50
3628;DHT22;1830;49.000;12.074;2023-06-14T04:04:18;13.90;97.80
3628;DHT22;1830;49.000;12.074;2023-06-14T04:06:46;13.90;98.20
3628;DHT22;1830;49.000;12.074;2023-06-14T04:09:13;13.90;98.40
3628;DHT22;1830;49.000;12.074;2023-06-14T04:11:40;14.00;98.50
3628;DHT22;1830;49.000;12.074;2023-06-14T04:14:07;13.90;98.60
3628;DHT22;1830;49.000;12.074;2023-06-14T04:16:35;14.00;98.80
3628;DHT22;1830;49.000;12.074;2023-06-14T04:19:02;14.00;98.90
3628;DHT22;1830;49.000;12.074;2023-06-14T04:21:29;14.00;99.00
3628;DHT22;1830;49.000;12.074;2023-06-14T04:23:55;14.00;99.10
3628;DHT22;1830;49.000;12.074;2023-06-14T04:26:22;14.10;99.20
3628;DHT22;1830;49.000;12.074;2023-06-14T04:28:55;14.00;99.10
3628;DHT22;1830;49.000;12.074;2023-06-14T04:31:22;14.10;99.10
3628;DHT22;1830;49.000;12.074;2023-06-14T04:33:51;14.10;99.20
3628;DHT22;1830;49.000;12.074;2023-06-14T04:36:19;14.10;99.20
3628;DHT22;1830;49.000;12.074;2023-06-14T04:38:46;14.20;99.30
3628;DHT22;1830;49.000;12.074;2023-06-14T04:41:14;14.30;99.20
3628;DHT22;1830;49.000;12.074;2023-06-14T04:43:41;14.20;99.10
3628;DHT22;1830;49.000;12.074;2023-06-14T04:46:08;14.30;99.20
3628;DHT22;1830;49.000;12.074;2023-06-14T04:48:36;14.20;99.30
3628;DHT22;1830;49.000;12.074;2023-06-14T04:51:06;14.30;99.30
3628;DHT22;1830;49.000;12.074;2023-06-14T04:53:33;14.30;99.30
3628;DHT22;1830;49.000;12.074;2023-06-14T04:56:00;14.30;99.50
3628;DHT22;1830;49.000;12.074;2023-06-14T04:58:28;14.30;99.70
3628;DHT22;1830;49.000;12.074;2023-06-14T05:00:55;14.40;99.80
3628;DHT22;1830;49.000;12.074;2023-06-14T05:03:26;14.40;99.90
3628;DHT22;1830;49.000;12.074;2023-06-14T05:05:56;14.40;99.70
3628;DHT22;1830;49.000;12.074;2023-06-14T05:08:24;14.40;99.60
3628;DHT22;1830;49.000;12.074;2023-06-14T05:10:51;14.40;99.20
3628;DHT22;1830;49.000;12.074;2023-06-14T05:13:18;14.50;98.80
3628;DHT22;1830;49.000;12.074;2023-06-14T05:15:46;14.50;98.70
3628;DHT22;1830;49.000;12.074;2023-06-14T05:18:12;14.60;98.60
3628;DHT22;1830;49.000;12.074;2023-06-14T05:20:41;14.70;98.30
3628;DHT22;1830;49.000;12.074;2023-06-14T05:23:09;14.60;98.20
3628;DHT22;1830;49.000;12.074;2023-06-14T05:25:41;14.50;98.10
3628;DHT22;1830;49.000;12.074;2023-06-14T05:28:08;14.60;98.30
3628;DHT22;1830;49.000;12.074;2023-06-14T05:30:37;14.60;98.30
3628;DHT22;1830;49.000;12.074;2023-06-14T05:33:04;14.70;98.40
3628;DHT22;1830;49.000;12.074;2023-06-14T05:35:31;14.70;98.20
3628;DHT22;1830;49.000;12.074;2023-06-14T05:37:57;14.70;98.20
3628;DHT22;1830;49.000;12.074;2023-06-14T05:40:24;14.80;98.30
3628;DHT22;1830;49.000;12.074;2023-06-14T05:42:52;14.90;98.20
3628;DHT22;1830;49.000;12.074;2023-06-14T05:45:19;14.90;98.20
3628;DHT22;1830;49.000;12.074;2023-06-14T05:47:46;14.90;98.10
3628;DHT22;1830;49.000;12.074;2023-06-14T05:50:13;15.00;98.00
3628;DHT22;1830;49.000;12.074;2023-06-14T05:52:39;15.10;98.10
3628;DHT22;1830;49.000;12.074;2023-06-14T05:55:07;15.10;97.80
3628;DHT22;1830;49.000;12.074;2023-06-14T05:57:34;15.20;97.90
3628;DHT22;1830;49.000;12.074;2023-06-14T06:00:06;15.30;97.90
3628;DHT22;1830;49.000;12.074;2023-06-14T06:02:36;15.40;97.90
3628;DHT22;1830;49.000;12.074;2023-06-14T06:05:03;15.40;97.70
3628;DHT22;1830;49.000;12.074;2023-06-14T06:07:31;15.50;97.70
3628;DHT22;1830;49.000;12.074;2023-06-14T06:09:58;15.60;97.70
3628;DHT22;1830;49.000;12.074;2023-06-14T06:12:25;15.60;97.40
3628;DHT22;1830;49.000;12.074;2023-06-14T06:14:52;15.70;97.30
3628;DHT22;1830;49.000;12.074;2023-06-14T06:17:20;15.80;97.50
3628;DHT22;1830;49.000;12.074;2023-06-14T06:19:47;15.80;97.40
3628;DHT22;1830;49.000;12.074;2023-06-14T06:22:13;15.80;97.20
3628;DHT22;1830;49.000;12.074;2023-06-14T06:24:40;15.80;97.10
3628;DHT22;1830;49.000;12.074;2023-06-14T06:27:07;15.90;97.20
3628;DHT22;1830;49.000;12.074;2023-06-14T06:29:34;15.90;97.10
3628;DHT22;1830;49.000;12.074;2023-06-14T06:32:01;16.00;97.20
3628;DHT22;1830;49.000;12.074;2023-06-14T06:34:29;16.10;97.20
3628;DHT22;1830;49.000;12.074;2023-06-14T06:36:56;16.20;96.90
3628;DHT22;1830;49.000;12.074;2023-06-14T06:39:23;16.20;97.30
3628;DHT22;1830;49.000;12.074;2023-06-14T06:41:49;16.30;97.00
3628;DHT22;1830;49.000;12.074;2023-06-14T06:44:16;16.40;96.80
3628;DHT22;1830;49.000;12.074;2023-06-14T06:46:43;16.50;96.90
3628;DHT22;1830;49.000;12.074;2023-06-14T06:49:12;16.50;96.50
3628;DHT22;1830;49.000;12.074;2023-06-14T06:51:42;16.50;95.80
3628;DHT22;1830;49.000;12.074;2023-06-14T06:54:10;16.60;95.60
3628;DHT22;1830;49.000;12.074;2023-06-14T06:56:37;16.60;95.70
3628;DHT22;1830;49.000;12.074;2023-06-14T06:59:04;16.80;95.60
3628;DHT22;1830;49.000;12.074;2023-06-14T07:01:30;16.70;94.80
3628;DHT22;1830;49.000;12.074;2023-06-14T07:03:59;16.80;94.70
3628;DHT22;1830;49.000;12.074;2023-06-14T07:06:26;16.90;94.80
3628;DHT22;1830;49.000;12.074;2023-06-14T07:08:54;17.10;94.70
3628;DHT22;1830;49.000;12.074;2023-06-14T07:11:26;17.20;94.40
3628;DHT22;1830;49.000;12.074;2023-06-14T07:13:53;17.40;94.30
3628;DHT22;1830;49.000;12.074;2023-06-14T07:16:20;17.50;94.30
3628;DHT22;1830;49.000;12.074;2023-06-14T07:18:47;17.60;94.10
3628;DHT22;1830;49.000;12.074;2023-06-14T07:21:14;17.60;93.70
3628;DHT22;1830;49.000;12.074;2023-06-14T07:23:41;17.70;93.60
3628;DHT22;1830;49.000;12.074;2023-06-14T07:26:09;17.70;93.70
3628;DHT22;1830;49.000;12.074;2023-06-14T07:28:35;17.80;93.40
3628;DHT22;1830;49.000;12.074;2023-06-14T07:31:02;17.80;93.20
3628;DHT22;1830;49.000;12.074;2023-06-14T07:33:29;17.80;93.00
3628;DHT22;1830;49.000;12.074;2023-06-14T07:35:56;17.90;93.20
3628;DHT22;1830;49.000;12.074;2023-06-14T07:38:22;17.90;93.30
3628;DHT22;1830;49.000;12.074;2023-06-14T07:40:49;17.90;92.80
3628;DHT22;1830;49.000;12.074;2023-06-14T07:43:17;18.10;91.80
3628;DHT22;1830;49.000;12.074;2023-06-14T07:45:44;18.20;90.80
3628;DHT22;1830;49.000;12.074;2023-06-14T07:48:11;18.20;88.70
3628;DHT22;1830;49.000;12.074;2023-06-14T07:50:38;18.20;85.50
3628;DHT22;1830;49.000;12.074;2023-06-14T07:53:05;18.30;84.40
3628;DHT22;1830;49.000;12.074;2023-06-14T07:55:32;18.30;85.20
3628;DHT22;1830;49.000;12.074;2023-06-14T07:58:02;18.30;83.90
3628;DHT22;1830;49.000;12.074;2023-06-14T08:00:30;18.10;84.70
3628;DHT22;1830;49.000;12.074;2023-06-14T08:02:57;18.10;86.50
3628;DHT22;1830;49.000;12.074;2023-06-14T08:05:25;18.20;87.20
3628;DHT22;1830;49.000;12.074;2023-06-14T08:07:52;18.30;86.60
3628;DHT22;1830;49.000;12.074;2023-06-14T08:10:19;18.40;85.80
3628;DHT22;1830;49.000;12.074;2023-06-14T08:12:46;18.60;86.20
3628;DHT22;1830;49.000;12.074;2023-06-14T08:15:14;18.60;84.80
3628;DHT22;1830;49.000;12.074;2023-06-14T08:17:42;18.70;84.20
3628;DHT22;1830;49.000;12.074;2023-06-14T08:20:10;18.70;83.70
3628;DHT22;1830;49.000;12.074;2023-06-14T08:22:37;18.60;83.30
3628;DHT22;1830;49.000;12.074;2023-06-14T08:25:05;18.70;83.50
3628;DHT22;1830;49.000;12.074;2023-06-14T08:27:33;18.80;84.10
3628;DHT22;1830;49.000;12.074;2023-06-14T08:30:00;18.90;85.40
3628;DHT22;1830;49.000;12.074;2023-06-14T08:32:27;19.10;85.10
3628;DHT22;1830;49.000;12.074;2023-06-14T08:34:55;19.10;83.40
3628;DHT22;1830;49.000;12.074;2023-06-14T08:37:22;19.10;84.00
3628;DHT22;1830;49.000;12.074;2023-06-14T08:39:49;19.20;84.80
3628;DHT22;1830;49.000;12.074;2023-06-14T08:42:19;19.30;84.90
3628;DHT22;1830;49.000;12.074;2023-06-14T08:44:48;19.30;85.10
3628;DHT22;1830;49.000;12.074;2023-06-14T08:47:15;19.20;82.90
3628;DHT22;1830;49.000;12.074;2023-06-14T08:49:46;19.40;83.40
3628;DHT22;1830;49.000;12.074;2023-06-14T08:52:16;19.30;82.20
3628;DHT22;1830;49.000;12.074;2023-06-14T08:54:46;19.40;83.60
3628;DHT22;1830;49.000;12.074;2023-06-14T08:57:14;19.60;84.50
3628;DHT22;1830;49.000;12.074;2023-06-14T08:59:46;19.70;83.70
3628;DHT22;1830;49.000;12.074;2023-06-14T09:02:15;19.80;83.10
3628;DHT22;1830;49.000;12.074;2023-06-14T09:04:43;19.80;82.30
3628;DHT22;1830;49.000;12.074;2023-06-14T09:07:10;19.80;81.60
3628;DHT22;1830;49.000;12.074;2023-06-14T09:09:40;20.00;81.50
3628;DHT22;1830;49.000;12.074;2023-06-14T09:12:08;20.00;82.10
3628;DHT22;1830;49.000;12.074;2023-06-14T09:14:38;20.00;81.00
3628;DHT22;1830;49.000;12.074;2023-06-14T09:17:06;20.00;79.60
3628;DHT22;1830;49.000;12.074;2023-06-14T09:19:34;20.00;80.70
3628;DHT22;1830;49.000;12.074;2023-06-14T09:22:02;20.10;81.00
3628;DHT22;1830;49.000;12.074;2023-06-14T09:24:29;20.10;81.00
3628;DHT22;1830;49.000;12.074;2023-06-14T09:26:57;20.10;80.80
3628;DHT22;1830;49.000;12.074;2023-06-14T09:29:24;20.00;81.30
3628;DHT22;1830;49.000;12.074;2023-06-14T09:31:52;20.10;81.70
3628;DHT22;1830;49.000;12.074;2023-06-14T09:34:19;20.30;82.00
3628;DHT22;1830;49.000;12.074;2023-06-14T09:36:49;20.40;81.30
3628;DHT22;1830;49.000;12.074;2023-06-14T09:39:17;20.60;80.00
3628;DHT22;1830;49.000;12.074;2023-06-14T09:41:44;20.60;79.70
3628;DHT22;1830;49.000;12.074;2023-06-14T09:44:12;20.70;79.30
3628;DHT22;1830;49.000;12.074;2023-06-14T09:46:39;20.60;80.00
3628;DHT22;1830;49.000;12.074;2023-06-14T09:49:06;20.70;80.00
3628;DHT22;1830;49.000;12.074;2023-06-14T09:51:34;20.80;80.80
3628;DHT22;1830;49.000;12.074;2023-06-14T09:54:03;20.70;79.20
3628;DHT22;1830;49.000;12.074;2023-06-14T09:56:31;20.70;78.90
3628;DHT22;1830;49.000;12.074;2023-06-14T09:58:59;20.70;78.90
3628;DHT22;1830;49.000;12.074;2023-06-14T10:01:30;20.80;78.80
3628;DHT22;1830;49.000;12.074;2023-06-14T10:04:02;20.80;78.30
3628;DHT22;1830;49.000;12.074;2023-06-14T10:06:29;20.70;78.30
3628;DHT22;1830;49.000;12.074;2023-06-14T10:08:58;20.70;79.10
3628;DHT22;1830;49.000;12.074;2023-06-14T10:11:26;20.80;79.80
3628;DHT22;1830;49.000;12.074;2023-06-14T10:13:53;20.90;79.50
3628;DHT22;1830;49.000;12.074;2023-06-14T10:16:24;20.80;79.20
3628;DHT22;1830;49.000;12.074;2023-06-14T10:19:10;20.90;79.30
3628;DHT22;1830;49.000;12.074;2023-06-14T10:21:45;21.00;80.00
3628;DHT22;1830;49.000;12.074;2023-06-14T10:24:16;21.00;77.90
3628;DHT22;1830;49.000;12.074;2023-06-14T10:26:51;20.90;77.30
3628;DHT22;1830;49.000;12.074;2023-06-14T10:29:18;21.10;78.40
3628;DHT22;1830;49.000;12.074;2023-06-14T10:31:46;21.10;78.60
3628;DHT22;1830;49.000;12.074;2023-06-14T10:34:21;21.20;78.30
3628;DHT22;1830;49.000;12.074;2023-06-14T10:37:01;21.40;76.80
3628;DHT22;1830;49.000;12.074;2023-06-14T10:39:28;21.30;76.50
3628;DHT22;1830;49.000;12.074;2023-06-14T10:41:56;21.40;77.10
3628;DHT22;1830;49.000;12.074;2023-06-14T10:44:43;21.40;77.70
3628;DHT22;1830;49.000;12.074;2023-06-14T10:47:20;21.50;77.70
3628;DHT22;1830;49.000;12.074;2023-06-14T10:49:51;21.50;76.00
3628;DHT22;1830;49.000;12.074;2023-06-14T10:52:22;21.60;76.20
3628;DHT22;1830;49.000;12.074;2023-06-14T10:55:08;21.80;77.40
3628;DHT22;1830;49.000;12.074;2023-06-14T10:57:41;21.70;76.30
3628;DHT22;1830;49.000;12.074;2023-06-14T11:00:09;21.70;76.60
3628;DHT22;1830;49.000;12.074;2023-06-14T11:03:18;21.70;75.50
3628;DHT22;1830;49.000;12.074;2023-06-14T11:05:53;21.60;76.20
3628;DHT22;1830;49.000;12.074;2023-06-14T11:08:39;21.70;75.70
3628;DHT22;1830;49.000;12.074;2023-06-14T11:11:07;21.90;75.90
3628;DHT22;1830;49.000;12.074;2023-06-14T11:13:37;21.80;75.40
3628;DHT22;1830;49.000;12.074;2023-06-14T11:16:10;21.60;74.50
3628;DHT22;1830;49.000;12.074;2023-06-14T11:18:37;21.60;74.50
3628;DHT22;1830;49.000;12.074;2023-06-14T11:21:05;21.50;75.00
3628;DHT22;1830;49.000;12.074;2023-06-14T11:23:32;21.60;75.30
3628;DHT22;1830;49.000;12.074;2023-06-14T11:25:59;22.00;74.90
3628;DHT22;1830;49.000;12.074;2023-06-14T11:28:36;22.10;73.30
3628;DHT22;1830;49.000;12.074;2023-06-14T11:31:04;22.30;73.70
3628;DHT22;1830;49.000;12.074;2023-06-14T11:33:31;22.30;72.90
3628;DHT22;1830;49.000;12.074;2023-06-14T11:35:57;22.60;72.30
3628;DHT22;1830;49.000;12.074;2023-06-14T11:38:26;22.80;70.30
3628;DHT22;1830;49.000;12.074;2023-06-14T11:40:53;23.00;68.50
3628;DHT22;1830;49.000;12.074;2023-06-14T11:43:19;22.90;69.00
3628;DHT22;1830;49.000;12.074;2023-06-14T11:45:48;22.80;69.70
3628;DHT22;1830;49.000;12.074;2023-06-14T11:48:14;22.80;69.70
3628;DHT22;1830;49.000;12.074;2023-06-14T11:50:41;23.00;69.40
3628;DHT22;1830;49.000;12.074;2023-06-14T11:53:08;22.70;67.20
3628;DHT22;1830;49.000;12.074;2023-06-14T11:55:38;22.60;69.30
3628;DHT22;1830;49.000;12.074;2023-06-14T11:58:06;22.30;71.00
3628;DHT22;1830;49.000;12.074;2023-06-14T12:00:34;22.20;72.30
3628;DHT22;1830;49.000;12.074;2023-06-14T12:03:01;22.50;72.90
3628;DHT22;1830;49.000;12.074;2023-06-14T12:05:28;22.40;71.00
3628;DHT22;1830;49.000;12.074;2023-06-14T12:07:59;22.30;71.60
3628;DHT22;1830;49.000;12.074;2023-06-14T12:10:26;22.30;72.00
3628;DHT22;1830;49.000;12.074;2023-06-14T12:12:58;22.20;71.30
3628;DHT22;1830;49.000;12.074;2023-06-14T12:15:28;22.10;72.40
3628;DHT22;1830;49.000;12.074;2023-06-14T12:17:55;22.10;72.60
3628;DHT22;1830;49.000;12.074;2023-06-14T12:20:22;21.80;71.80
3628;DHT22;1830;49.000;12.074;2023-06-14T12:22:53;21.80;72.90
3628;DHT22;1830;49.000;12.074;2023-06-14T12:25:27;21.70;73.50
3628;DHT22;1830;49.000;12.074;2023-06-14T12:27:57;21.70;73.20
3628;DHT22;1830;49.000;12.074;2023-06-14T12:30:24;21.70;73.10
3628;DHT22;1830;49.000;12.074;2023-06-14T12:32:51;21.60;72.90
3628;DHT22;1830;49.000;12.074;2023-06-14T12:35:18;21.50;73.40
3628;DHT22;1830;49.000;12.074;2023-06-14T12:37:45;21.50;74.70
3628;DHT22;1830;49.000;12.074;2023-06-14T12:40:12;21.50;74.90
3628;DHT22;1830;49.000;12.074;2023-06-14T12:42:39;21.50;75.00
3628;DHT22;1830;49.000;12.074;2023-06-14T12:45:08;21.50;75.40
3628;DHT22;1830;49.000;12.074;2023-06-14T12:47:35;21.60;76.20
3628;DHT22;1830;49.000;12.074;2023-06-14T12:50:03;21.50;76.20
3628;DHT22;1830;49.000;12.074;2023-06-14T12:52:30;21.60;76.30
3628;DHT22;1830;49.000;12.074;2023-06-14T12:54:56;21.60;74.50
3628;DHT22;1830;49.000;12.074;2023-06-14T12:57:23;21.60;74.40
3628;DHT22;1830;49.000;12.074;2023-06-14T12:59:50;21.70;74.90
3628;DHT22;1830;49.000;12.074;2023-06-14T13:02:20;21.70;74.90
3628;DHT22;1830;49.000;12.074;2023-06-14T13:04:47;21.80;74.60
3628;DHT22;1830;49.000;12.074;2023-06-14T13:07:15;21.80;73.20
3628;DHT22;1830;49.000;12.074;2023-06-14T13:09:42;21.90;72.80
3628;DHT22;1830;49.000;12.074;2023-06-14T13:12:10;22.00;73.20
3628;DHT22;1830;49.000;12.074;2023-06-14T13:14:37;22.10;73.50
3628;DHT22;1830;49.000;12.074;2023-06-14T13:17:05;22.30;72.70
3628;DHT22;1830;49.000;12.074;2023-06-14T13:19:33;23.00;71.70
3628;DHT22;1830;49.000;12.074;2023-06-14T13:22:00;23.10;70.40
3628;DHT22;1830;49.000;12.074;2023-06-14T13:24:27;23.10;69.70
3628;DHT22;1830;49.000;12.074;2023-06-14T13:26:55;22.90;69.10
3628;DHT22;1830;49.000;12.074;2023-06-14T13:29:23;22.80;68.80
3628;DHT22;1830;49.000;12.074;2023-06-14T13:31:49;22.70;68.20
3628;DHT22;1830;49.000;12.074;2023-06-14T13:34:17;22.70;69.80
3628;DHT22;1830;49.000;12.074;2023-06-14T13:36:45;22.60;69.60
3628;DHT22;1830;49.000;12.074;2023-06-14T13:39:12;22.50;69.60
3628;DHT22;1830;49.000;12.074;2023-06-14T13:41:39;22.50;70.10
3628;DHT22;1830;49.000;12.074;2023-06-14T13:44:06;22.40;69.70
3628;DHT22;1830;49.000;12.074;2023-06-14T13:46:33;22.40;69.60
3628;DHT22;1830;49.000;12.074;2023-06-14T13:49:00;22.60;69.50
3628;DHT22;1830;49.000;12.074;2023-06-14T13:51:27;23.20;70.20
3628;DHT22;1830;49.000;12.074;2023-06-14T13:53:55;23.50;69.70
3628;DHT22;1830;49.000;12.074;2023-06-14T13:56:22;23.80;67.90
3628;DHT22;1830;49.000;12.074;2023-06-14T13:58:50;24.20;68.00
3628;DHT22;1830;49.000;12.074;2023-06-14T14:01:17;24.20;66.80
3628;DHT22;1830;49.000;12.074;2023-06-14T14:03:45;24.50;66.30
3628;DHT22;1830;49.000;12.074;2023-06-14T14:06:12;24.80;66.20
3628;DHT22;1830;49.000;12.074;2023-06-14T14:08:39;25.10;66.00
3628;DHT22;1830;49.000;12.074;2023-06-14T14:11:08;25.20;65.50
3628;DHT22;1830;49.000;12.074;2023-06-14T14:13:35;25.00;65.10
3628;DHT22;1830;49.000;12.074;2023-06-14T14:16:04;24.40;64.90
3628;DHT22;1830;49.000;12.074;2023-06-14T14:18:31;24.10;66.00
3628;DHT22;1830;49.000;12.074;2023-06-14T14:20:58;23.90;65.30
3628;DHT22;1830;49.000;12.074;2023-06-14T14:23:26;23.60;65.80
3628;DHT22;1830;49.000;12.074;2023-06-14T14:25:53;23.40;64.60
3628;DHT22;1830;49.000;12.074;2023-06-14T14:28:21;23.30;65.00
3628;DHT22;1830;49.000;12.074;2023-06-14T14:30:48;23.00;65.40
3628;DHT22;1830;49.000;12.074;2023-06-14T14:33:15;22.90;66.10
3628;DHT22;1830;49.000;12.074;2023-06-14T14:35:43;22.90;67.20
3628;DHT22;1830;49.000;12.074;2023-06-14T14:38:11;22.80;67.00
3628;DHT22;1830;49.000;12.074;2023-06-14T14:40:38;22.80;66.60
3628;DHT22;1830;49.000;12.074;2023-06-14T14:43:05;22.70;65.80
3628;DHT22;1830;49.000;12.074;2023-06-14T14:45:33;22.70;66.10
3628;DHT22;1830;49.000;12.074;2023-06-14T14:48:01;22.70;67.00
3628;DHT22;1830;49.000;12.074;2023-06-14T14:50:27;22.70;65.90
3628;DHT22;1830;49.000;12.074;2023-06-14T14:52:54;22.80;65.80
3628;DHT22;1830;49.000;12.074;2023-06-14T14:55:21;22.70;65.50
3628;DHT22;1830;49.000;12.074;2023-06-14T14:57:48;22.70;65.80
3628;DHT22;1830;49.000;12.074;2023-06-14T15:00:15;22.70;66.30
3628;DHT22;1830;49.000;12.074;2023-06-14T15:02:44;22.70;66.60
3628;DHT22;1830;49.000;12.074;2023-06-14T15:05:10;22.90;66.40
3628;DHT22;1830;49.000;12.074;2023-06-14T15:07:37;23.00;67.00
3628;DHT22;1830;49.000;12.074;2023-06-14T15:10:06;23.10;67.30
3628;DHT22;1830;49.000;12.074;2023-06-14T15:12:34;23.10;67.10
3628;DHT22;1830;49.000;12.074;2023-06-14T15:15:01;23.00;67.00
3628;DHT22;1830;49.000;12.074;2023-06-14T15:17:27;23.00;67.20
3628;DHT22;1830;49.000;12.074;2023-06-14T15:19:56;23.00;67.60
3628;DHT22;1830;49.000;12.074;2023-06-14T15:22:22;22.90;68.00
3628;DHT22;1830;49.000;12.074;2023-06-14T15:24:49;22.90;69.10
3628;DHT22;1830;49.000;12.074;2023-06-14T15:27:16;22.80;68.00
3628;DHT22;1830;49.000;12.074;2023-06-14T15:29:43;22.90;67.20
3628;DHT22;1830;49.000;12.074;2023-06-14T15:32:11;22.90;68.10
3628;DHT22;1830;49.000;12.074;2023-06-14T15:34:38;22.90;68.60
3628;DHT22;1830;49.000;12.074;2023-06-14T15:37:07;22.90;68.20
3628;DHT22;1830;49.000;12.074;2023-06-14T15:39:34;22.80;67.90
3628;DHT22;1830;49.000;12.074;2023-06-14T15:42:01;22.80;67.40
3628;DHT22;1830;49.000;12.074;2023-06-14T15:44:27;22.80;67.50
3628;DHT22;1830;49.000;12.074;2023-06-14T15:46:54;22.90;67.00
3628;DHT22;1830;49.000;12.074;2023-06-14T15:49:21;22.90;67.70